createdAt,value
2023-05-25T00:02:07.672Z,13.77
2023-05-25T00:04:37.048Z,12.80
2023-05-25T00:07:05.638Z,10.88
2023-05-25T00:09:33.744Z,10.68
2023-05-25T00:12:01.939Z,12.57
2023-05-25T00:14:31.086Z,8.57
2023-05-25T00:17:04.076Z,11.90
2023-05-25T00:19:34.018Z,10.35
2023-05-25T00:22:03.173Z,11.70
2023-05-25T00:24:31.913Z,11.82
2023-05-25T00:27:00.586Z,14.88
2023-05-25T00:29:28.683Z,11.30
2023-05-25T00:31:56.819Z,10.63
2023-05-25T00:34:26.440Z,8.57
2023-05-25T00:36:55.175Z,13.25
2023-05-25T00:39:23.285Z,13.70
2023-05-25T00:41:51.390Z,9.52
2023-05-25T00:44:22.060Z,11.10
2023-05-25T00:46:52.517Z,9.02
2023-05-25T00:49:23.768Z,11.07
2023-05-25T00:51:54.024Z,12.73
2023-05-25T00:54:22.525Z,14.75
2023-05-25T00:56:54.076Z,11.27
2023-05-25T00:59:31.041Z,10.82
2023-05-25T01:02:04.776Z,9.25
2023-05-25T01:04:35.883Z,14.38
2023-05-25T01:07:07.967Z,14.83
2023-05-25T01:09:39.711Z,11.45
2023-05-25T01:12:10.412Z,12.07
2023-05-25T01:14:40.546Z,13.20
2023-05-25T01:17:09.850Z,13.07
2023-05-25T01:19:41.101Z,14.10
2023-05-25T01:22:17.167Z,17.85
2023-05-25T01:24:48.855Z,12.93
2023-05-25T01:27:23.869Z,13.40
2023-05-25T01:29:53.281Z,13.48
2023-05-25T01:32:22.712Z,15.50
2023-05-25T01:34:52.163Z,15.68
2023-05-25T01:37:23.362Z,15.70
2023-05-25T01:39:51.475Z,11.38
2023-05-25T01:42:19.548Z,12.43
2023-05-25T01:44:47.674Z,13.25
2023-05-25T01:47:33.591Z,14.63
2023-05-25T01:50:07.606Z,15.73
2023-05-25T01:52:39.635Z,12.35
2023-05-25T01:57:39.624Z,12.70
2023-05-25T02:00:09.464Z,15.50
2023-05-25T02:02:39.283Z,13.82
2023-05-25T02:05:08.280Z,13.52
2023-05-25T02:07:37.757Z,17.15
2023-05-25T02:10:06.667Z,12.27
2023-05-25T02:12:34.832Z,14.30
2023-05-25T02:15:02.957Z,19.77
2023-05-25T02:17:31.189Z,20.90
2023-05-25T02:19:59.309Z,13.32
2023-05-25T02:22:27.740Z,14.68
2023-05-25T02:24:57.179Z,16.80
2023-05-25T02:27:25.785Z,15.50
2023-05-25T02:29:53.910Z,16.80
2023-05-25T02:32:22.501Z,14.25
2023-05-25T02:34:50.644Z,15.98
2023-05-25T02:37:18.832Z,14.05
2023-05-25T02:39:46.948Z,15.23
2023-05-25T02:42:16.405Z,13.27
2023-05-25T02:44:48.233Z,17.77
2023-05-25T02:47:16.722Z,16.05
2023-05-25T02:49:44.978Z,19.08
2023-05-25T02:52:13.113Z,13.18
2023-05-25T02:54:41.692Z,12.50
2023-05-25T02:57:10.254Z,16.25
2023-05-25T02:59:39.759Z,13.02
2023-05-25T03:02:07.834Z,18.15
2023-05-25T03:04:38.012Z,15.13
2023-05-25T03:07:06.395Z,13.15
2023-05-25T03:09:34.503Z,17.52
2023-05-25T03:12:02.663Z,10.98
2023-05-25T03:14:30.804Z,16.55
2023-05-25T03:17:00.279Z,13.43
2023-05-25T03:19:28.363Z,16.92
2023-05-25T03:21:56.647Z,14.45
2023-05-25T03:24:24.724Z,18.33
2023-05-25T03:26:52.804Z,13.65
2023-05-25T03:29:20.929Z,13.15
2023-05-25T03:31:49.075Z,12.68
2023-05-25T03:34:18.551Z,18.60
2023-05-25T03:36:47.634Z,15.32
2023-05-25T03:39:15.952Z,15.90
2023-05-25T03:41:44.272Z,15.57
2023-05-25T03:44:12.378Z,15.95
2023-05-25T03:46:40.928Z,15.48
2023-05-25T03:49:13.669Z,12.88
2023-05-25T03:51:43.709Z,15.93
2023-05-25T03:54:11.881Z,15.73
2023-05-25T03:56:40.010Z,11.80
2023-05-25T03:59:08.142Z,15.07
2023-05-25T04:01:39.011Z,13.90
2023-05-25T04:04:07.957Z,20.02
2023-05-25T04:06:37.285Z,18.58
2023-05-25T04:09:07.182Z,14.98
2023-05-25T04:11:35.250Z,13.88
2023-05-25T04:14:03.487Z,16.50
2023-05-25T04:16:31.626Z,13.93
2023-05-25T04:18:59.770Z,13.88
2023-05-25T04:21:27.905Z,16.40
2023-05-25T04:23:56.005Z,15.63
2023-05-25T04:26:26.380Z,13.85
2023-05-25T04:28:55.888Z,16.83
2023-05-25T04:31:24.952Z,18.92
2023-05-25T04:33:53.100Z,16.75
2023-05-25T04:36:21.203Z,21.10
2023-05-25T04:38:52.183Z,18.25
2023-05-25T04:41:20.471Z,17.87
2023-05-25T04:44:05.886Z,18.15
2023-05-25T04:46:38.997Z,21.67
2023-05-25T04:49:08.356Z,16.73
2023-05-25T04:51:37.011Z,21.70
2023-05-25T04:54:06.360Z,23.88
2023-05-25T04:56:34.489Z,21.10
2023-05-25T04:59:04.402Z,14.35
2023-05-25T05:01:34.355Z,20.58
2023-05-25T05:04:02.539Z,14.95
2023-05-25T05:06:32.231Z,16.90
2023-05-25T05:09:00.367Z,17.30
2023-05-25T05:11:29.400Z,16.77
2023-05-25T05:13:59.092Z,22.08
2023-05-25T05:16:33.617Z,14.43
2023-05-25T05:19:02.635Z,18.48
2023-05-25T05:21:30.776Z,16.65
2023-05-25T05:23:58.901Z,26.77
2023-05-25T05:26:27.640Z,17.90
2023-05-25T05:28:55.750Z,16.48
2023-05-25T05:31:24.332Z,18.25
2023-05-25T05:33:54.007Z,26.23
2023-05-25T05:36:22.101Z,20.70
2023-05-25T05:38:50.288Z,19.83
2023-05-25T05:41:18.388Z,17.40
2023-05-25T05:43:46.657Z,19.40
2023-05-25T05:46:15.093Z,17.38
2023-05-25T05:48:43.257Z,19.73
2023-05-25T05:51:12.726Z,15.63
2023-05-25T05:53:40.865Z,19.92
2023-05-25T05:56:18.463Z,18.60
2023-05-25T05:58:48.811Z,18.15
2023-05-25T06:01:18.004Z,19.05
2023-05-25T06:03:47.533Z,18.25
2023-05-25T06:06:17.318Z,17.85
2023-05-25T06:08:45.640Z,17.67
2023-05-25T06:11:13.712Z,17.77
2023-05-25T06:13:41.810Z,15.70
2023-05-25T06:16:10.005Z,14.20
2023-05-25T06:18:38.165Z,13.45
2023-05-25T06:21:07.117Z,12.20
2023-05-25T06:23:36.545Z,24.50
2023-05-25T06:26:05.969Z,17.35
2023-05-25T06:28:34.527Z,21.08
2023-05-25T06:31:02.613Z,14.20
2023-05-25T06:33:31.779Z,13.98
2023-05-25T06:36:00.725Z,14.15
2023-05-25T06:38:30.103Z,14.20
2023-05-25T06:41:03.182Z,18.83
2023-05-25T06:43:32.204Z,13.93
2023-05-25T06:46:00.721Z,13.23
2023-05-25T06:48:28.862Z,12.10
2023-05-25T06:50:56.978Z,12.57
2023-05-25T06:53:25.091Z,12.40
2023-05-25T06:55:53.177Z,14.10
2023-05-25T06:58:22.664Z,13.98
2023-05-25T07:00:50.877Z,12.48
2023-05-25T07:03:19.052Z,9.70
2023-05-25T07:05:47.141Z,10.98
2023-05-25T07:08:15.262Z,15.05
2023-05-25T07:10:43.410Z,14.00
2023-05-25T07:13:11.733Z,11.18
2023-05-25T07:15:41.208Z,12.50
2023-05-25T07:18:12.607Z,13.50
2023-05-25T07:20:42.232Z,14.82
2023-05-25T07:23:10.941Z,12.00
2023-05-25T07:25:40.031Z,9.80
2023-05-25T07:28:08.289Z,12.63
2023-05-25T07:30:36.409Z,12.80
2023-05-25T07:33:06.039Z,12.43
2023-05-25T07:35:35.382Z,11.38
2023-05-25T07:38:04.795Z,9.48
2023-05-25T07:40:32.933Z,9.43
2023-05-25T07:43:01.387Z,8.55
2023-05-25T07:45:29.620Z,9.13
2023-05-25T07:47:57.830Z,11.20
2023-05-25T07:50:27.689Z,12.05
2023-05-25T07:52:58.550Z,12.18
2023-05-25T07:55:27.401Z,14.25
2023-05-25T07:57:55.605Z,11.77
2023-05-25T08:00:23.833Z,11.98
2023-05-25T08:02:52.137Z,10.40
2023-05-25T08:05:20.454Z,14.90
2023-05-25T08:07:49.901Z,12.07
2023-05-25T08:10:17.983Z,11.98
2023-05-25T08:12:49.403Z,10.73
2023-05-25T08:17:46.017Z,10.57
2023-05-25T08:20:15.466Z,7.28
2023-05-25T08:22:43.780Z,11.48
2023-05-25T08:25:13.315Z,12.25
2023-05-25T08:27:41.551Z,7.47
2023-05-25T08:30:10.562Z,12.10
2023-05-25T08:32:38.724Z,10.25
2023-05-25T08:35:08.060Z,9.73
2023-05-25T08:37:36.141Z,9.95
2023-05-25T08:40:06.163Z,8.70
2023-05-25T08:42:35.770Z,9.60
2023-05-25T08:45:04.027Z,10.27
2023-05-25T08:47:35.617Z,14.05
2023-05-25T08:50:05.078Z,9.18
2023-05-25T08:52:35.197Z,8.98
2023-05-25T08:55:07.683Z,12.70
2023-05-25T08:57:51.224Z,11.95
2023-05-25T09:00:23.109Z,10.98
2023-05-25T09:05:22.623Z,5.68
2023-05-25T09:07:54.079Z,9.13
2023-05-25T09:10:23.317Z,7.47
2023-05-25T09:12:53.501Z,7.88
2023-05-25T09:15:21.609Z,12.43
2023-05-25T09:17:49.784Z,8.50
2023-05-25T09:20:19.607Z,6.57
2023-05-25T09:22:48.876Z,6.82
2023-05-25T09:25:20.217Z,7.55
2023-05-25T09:27:48.439Z,7.93
2023-05-25T09:30:17.991Z,8.18
2023-05-25T09:32:46.228Z,8.00
2023-05-25T09:35:16.136Z,5.72
2023-05-25T09:37:45.281Z,6.80
2023-05-25T09:40:15.349Z,5.47
2023-05-25T09:42:44.145Z,7.15
2023-05-25T09:45:12.251Z,8.43
2023-05-25T09:47:42.003Z,7.80
2023-05-25T09:50:12.619Z,7.30
2023-05-25T09:52:40.980Z,12.32
2023-05-25T09:55:12.604Z,9.63
2023-05-25T09:57:40.669Z,8.55
2023-05-25T10:00:11.873Z,7.82
2023-05-25T10:02:42.171Z,6.18
2023-05-25T10:05:10.776Z,7.65
2023-05-25T10:07:41.812Z,7.85
2023-05-25T10:10:15.302Z,6.63
2023-05-25T10:12:45.192Z,8.40
2023-05-25T10:15:15.227Z,6.57
2023-05-25T10:17:50.245Z,7.63
2023-05-25T10:20:18.584Z,10.35
2023-05-25T10:22:54.248Z,7.22
2023-05-25T10:25:28.104Z,10.82
2023-05-25T10:28:00.705Z,7.88
2023-05-25T10:30:29.073Z,11.43
2023-05-25T10:32:58.873Z,9.10
2023-05-25T10:35:27.350Z,10.00
2023-05-25T10:37:57.958Z,8.27
2023-05-25T10:40:26.087Z,8.80
2023-05-25T10:42:54.176Z,14.95
2023-05-25T10:45:24.494Z,9.98
2023-05-25T10:47:52.946Z,10.32
2023-05-25T10:50:24.542Z,12.40
2023-05-25T10:53:03.250Z,9.00
2023-05-25T10:55:43.841Z,10.38
2023-05-25T10:58:14.956Z,8.48
2023-05-25T11:00:43.633Z,8.30
2023-05-25T11:03:11.839Z,8.02
2023-05-25T11:05:41.440Z,7.68
2023-05-25T11:08:12.202Z,8.77
2023-05-25T11:10:56.455Z,7.13
2023-05-25T11:13:33.949Z,8.48
2023-05-25T11:16:17.586Z,6.78
2023-05-25T11:18:50.091Z,6.60
2023-05-25T11:21:25.131Z,9.23
2023-05-25T11:23:57.745Z,7.82
2023-05-25T11:26:27.358Z,8.68
2023-05-25T11:28:56.494Z,8.57
2023-05-25T11:31:31.952Z,7.80
2023-05-25T11:34:02.277Z,7.28
2023-05-25T11:36:34.078Z,8.45
2023-05-25T11:41:41.122Z,7.43
2023-05-25T11:44:09.234Z,10.25
2023-05-25T11:46:38.788Z,12.82
2023-05-25T11:49:07.030Z,8.10
2023-05-25T11:51:37.991Z,7.95
2023-05-25T11:54:06.297Z,10.50
2023-05-25T11:56:36.132Z,7.90
2023-05-25T11:59:08.481Z,7.43
2023-05-25T12:01:36.591Z,8.52
2023-05-25T12:04:10.585Z,9.30
2023-05-25T12:06:40.358Z,6.80
2023-05-25T12:09:13.891Z,7.07
2023-05-25T12:11:45.650Z,7.47
2023-05-25T12:16:43.546Z,8.45
2023-05-25T12:19:12.396Z,7.13
2023-05-25T12:21:42.755Z,7.60
2023-05-25T12:24:12.691Z,10.38
2023-05-25T12:26:49.223Z,7.90
2023-05-25T12:29:17.562Z,9.63
2023-05-25T12:31:45.933Z,8.98
2023-05-25T12:34:15.940Z,15.50
2023-05-25T12:36:47.923Z,7.90
2023-05-25T12:39:18.282Z,11.40
2023-05-25T12:41:54.064Z,9.00
2023-05-25T12:44:25.463Z,8.88
2023-05-25T12:46:55.291Z,10.48
2023-05-25T12:49:31.715Z,8.18
2023-05-25T12:52:03.494Z,9.77
2023-05-25T12:57:04.126Z,7.10
2023-05-25T12:59:32.931Z,9.02
2023-05-25T13:02:01.355Z,7.60
2023-05-25T13:04:29.601Z,8.52
2023-05-25T13:06:57.680Z,6.82
2023-05-25T13:09:27.874Z,6.38
2023-05-25T13:11:56.752Z,5.88
2023-05-25T13:14:25.275Z,8.35
2023-05-25T13:16:54.640Z,6.72
2023-05-25T13:19:24.325Z,6.30
2023-05-25T13:21:52.621Z,5.13
2023-05-25T13:24:20.845Z,7.57
2023-05-25T13:26:51.150Z,6.82
2023-05-25T13:29:19.565Z,7.10
2023-05-25T13:31:48.216Z,5.38
2023-05-25T13:34:16.506Z,7.07
2023-05-25T13:36:44.593Z,9.40
2023-05-25T13:39:13.777Z,8.43
2023-05-25T13:41:42.069Z,9.30
2023-05-25T13:44:14.071Z,9.82
2023-05-25T13:46:43.369Z,7.82
2023-05-25T13:49:13.349Z,7.05
2023-05-25T13:51:41.553Z,9.02
2023-05-25T13:54:09.652Z,5.15
2023-05-25T13:56:37.713Z,10.00
2023-05-25T13:59:05.882Z,8.70
2023-05-25T14:01:35.368Z,7.50
2023-05-25T14:04:04.719Z,10.07
2023-05-25T14:06:34.746Z,5.68
2023-05-25T14:09:02.881Z,9.95
2023-05-25T14:11:30.970Z,10.65
2023-05-25T14:13:59.068Z,6.18
2023-05-25T14:16:27.225Z,9.88
2023-05-25T14:18:57.297Z,6.95
2023-05-25T14:21:25.409Z,7.43
2023-05-25T14:23:53.509Z,6.25
2023-05-25T14:26:22.072Z,15.23
2023-05-25T14:28:50.573Z,8.05
2023-05-25T14:31:18.717Z,11.30
2023-05-25T14:33:46.939Z,5.38
2023-05-25T14:36:16.449Z,7.95
2023-05-25T14:38:44.562Z,7.55
2023-05-25T14:41:12.633Z,8.55
2023-05-25T14:43:41.003Z,5.60
2023-05-25T14:46:10.493Z,7.32
2023-05-25T14:48:38.615Z,7.43
2023-05-25T14:51:06.837Z,10.30
2023-05-25T14:53:36.331Z,5.82
2023-05-25T14:56:04.687Z,10.27
2023-05-25T14:58:32.907Z,7.13
2023-05-25T15:01:01.263Z,8.15
2023-05-25T15:03:29.466Z,7.72
2023-05-25T15:05:57.697Z,7.15
2023-05-25T15:08:25.788Z,7.35
2023-05-25T15:10:55.379Z,6.70
2023-05-25T15:13:23.493Z,6.70
2023-05-25T15:15:54.512Z,8.80
2023-05-25T15:18:22.693Z,6.68
2023-05-25T15:20:50.755Z,8.05
2023-05-25T15:23:18.817Z,5.90
2023-05-25T15:25:46.924Z,6.57
2023-05-25T15:28:16.641Z,6.88
2023-05-25T15:30:44.738Z,7.90
2023-05-25T15:33:14.533Z,6.13
2023-05-25T15:35:42.899Z,6.78
2023-05-25T15:38:11.251Z,6.13
2023-05-25T15:40:39.330Z,9.05
2023-05-25T15:43:07.379Z,5.28
2023-05-25T15:45:36.816Z,11.38
2023-05-25T15:48:09.147Z,8.32
2023-05-25T15:50:39.448Z,6.32
2023-05-25T15:53:07.976Z,6.30
2023-05-25T15:55:36.524Z,7.93
2023-05-25T15:58:04.625Z,6.68
2023-05-25T16:00:33.050Z,7.90
2023-05-25T16:03:02.897Z,10.82
2023-05-25T16:05:31.231Z,6.65
2023-05-25T16:07:59.292Z,7.15
2023-05-25T16:10:27.361Z,9.95
2023-05-25T16:12:55.451Z,5.35
2023-05-25T16:15:23.967Z,7.95
2023-05-25T16:17:52.067Z,6.82
2023-05-25T16:20:21.574Z,6.50
2023-05-25T16:22:49.649Z,7.38
2023-05-25T16:25:17.712Z,6.63
2023-05-25T16:27:45.859Z,9.45
2023-05-25T16:30:14.335Z,4.95
2023-05-25T16:32:42.483Z,9.15
2023-05-25T16:35:11.008Z,7.78
2023-05-25T16:37:40.461Z,7.05
2023-05-25T16:40:09.912Z,7.72
2023-05-25T16:42:38.007Z,4.80
2023-05-25T16:45:07.194Z,7.47
2023-05-25T16:47:35.322Z,5.57
2023-05-25T16:50:03.491Z,10.65
2023-05-25T16:52:31.597Z,6.78
2023-05-25T16:55:01.158Z,7.97
2023-05-25T16:57:29.266Z,5.85
2023-05-25T16:59:57.335Z,7.10
2023-05-25T17:02:25.472Z,10.82
2023-05-25T17:04:53.596Z,5.65
2023-05-25T17:07:21.672Z,7.15
2023-05-25T17:09:49.760Z,6.47
2023-05-25T17:12:19.183Z,5.25
2023-05-25T17:14:47.259Z,6.30
2023-05-25T17:17:15.612Z,7.45
2023-05-25T17:19:43.865Z,6.30
2023-05-25T17:22:11.986Z,6.13
2023-05-25T17:24:40.060Z,10.63
2023-05-25T17:27:08.152Z,6.38
2023-05-25T17:29:37.878Z,5.82
2023-05-25T17:32:06.610Z,4.65
2023-05-25T17:34:34.741Z,6.32
2023-05-25T17:37:03.865Z,10.52
2023-05-25T17:39:32.109Z,8.75
2023-05-25T17:42:00.220Z,5.07
2023-05-25T17:44:28.312Z,8.27
2023-05-25T17:46:57.760Z,5.30
2023-05-25T17:49:25.815Z,7.72
2023-05-25T17:51:53.882Z,5.07
2023-05-25T17:54:25.742Z,6.40
2023-05-25T17:56:54.127Z,6.05
2023-05-25T17:59:22.213Z,4.63
2023-05-25T18:01:50.521Z,6.45
2023-05-25T18:04:20.474Z,5.55
2023-05-25T18:06:49.817Z,6.32
2023-05-25T18:09:17.945Z,7.88
2023-05-25T18:11:46.069Z,6.53
2023-05-25T18:14:14.264Z,6.68
2023-05-25T18:16:43.336Z,8.73
2023-05-25T18:19:11.479Z,6.78
2023-05-25T18:21:41.519Z,6.03
2023-05-25T18:24:10.418Z,5.68
2023-05-25T18:26:38.592Z,7.30
2023-05-25T18:29:06.710Z,5.75
2023-05-25T18:31:34.911Z,8.00
2023-05-25T18:34:03.005Z,6.70
2023-05-25T18:36:33.012Z,6.35
2023-05-25T18:39:02.462Z,8.70
2023-05-25T18:41:30.584Z,8.15
2023-05-25T18:43:58.667Z,5.32
2023-05-25T18:46:28.178Z,6.68
2023-05-25T18:48:56.550Z,8.27
2023-05-25T18:51:25.954Z,7.60
2023-05-25T18:53:54.811Z,7.18
2023-05-25T18:56:24.251Z,7.68
2023-05-25T18:58:54.657Z,5.28
2023-05-25T19:01:22.862Z,7.82
2023-05-25T19:03:51.211Z,9.25
2023-05-25T19:06:19.499Z,9.55
2023-05-25T19:08:49.447Z,8.65
2023-05-25T19:11:19.567Z,7.82
2023-05-25T19:13:49.131Z,7.25
2023-05-25T19:16:17.324Z,8.50
2023-05-25T19:18:45.517Z,8.57
2023-05-25T19:21:13.614Z,9.25
2023-05-25T19:23:42.049Z,7.43
2023-05-25T19:26:10.120Z,6.93
2023-05-25T19:28:38.191Z,7.32
2023-05-25T19:31:07.706Z,10.73
2023-05-25T19:33:35.945Z,5.78
2023-05-25T19:36:04.210Z,5.63
2023-05-25T19:38:41.206Z,6.03
2023-05-25T19:41:10.545Z,5.13
2023-05-25T19:43:38.713Z,8.02
2023-05-25T19:46:08.246Z,7.03
2023-05-25T19:48:36.490Z,6.35
2023-05-25T19:51:04.708Z,7.47
2023-05-25T19:53:32.981Z,6.18
2023-05-25T19:56:01.209Z,10.00
2023-05-25T19:58:29.292Z,7.00
2023-05-25T20:00:57.716Z,10.82
2023-05-25T20:03:27.348Z,7.43
2023-05-25T20:05:56.291Z,8.55
2023-05-25T20:08:25.510Z,7.47
2023-05-25T20:10:53.972Z,8.88
2023-05-25T20:13:22.042Z,7.43
2023-05-25T20:15:50.190Z,9.85
2023-05-25T20:18:18.929Z,9.27
2023-05-25T20:20:48.572Z,11.88
2023-05-25T20:23:16.726Z,9.55
2023-05-25T20:25:44.987Z,9.70
2023-05-25T20:28:13.248Z,8.98
2023-05-25T20:30:41.338Z,10.35
2023-05-25T20:33:09.467Z,10.93
2023-05-25T20:35:38.370Z,11.60
2023-05-25T20:38:07.852Z,10.48
2023-05-25T20:40:36.024Z,10.32
2023-05-25T20:43:04.092Z,9.38
2023-05-25T20:45:32.168Z,9.15
2023-05-25T20:48:01.600Z,11.65
2023-05-25T20:50:29.782Z,9.77
2023-05-25T20:52:58.299Z,10.77
2023-05-25T20:55:28.661Z,9.40
2023-05-25T20:57:59.665Z,14.02
2023-05-25T21:00:27.823Z,11.60
2023-05-25T21:02:56.054Z,14.25
2023-05-25T21:05:24.345Z,12.02
2023-05-25T21:07:52.901Z,9.85
2023-05-25T21:10:21.260Z,11.93
2023-05-25T21:12:51.110Z,12.45
2023-05-25T21:15:19.221Z,11.70
2023-05-25T21:17:47.479Z,10.38
2023-05-25T21:20:15.661Z,10.32
2023-05-25T21:22:43.787Z,12.82
2023-05-25T21:25:12.199Z,10.13
2023-05-25T21:27:40.418Z,9.73
2023-05-25T21:30:10.981Z,12.70
2023-05-25T21:32:39.113Z,10.15
2023-05-25T21:35:07.333Z,11.93
2023-05-25T21:37:35.471Z,11.68
2023-05-25T21:40:03.626Z,10.15
2023-05-25T21:42:31.696Z,7.63
2023-05-25T21:44:59.775Z,9.63
2023-05-25T21:47:29.272Z,10.07
2023-05-25T21:49:57.481Z,8.77
2023-05-25T21:52:25.590Z,10.27
2023-05-25T21:54:53.658Z,11.00
2023-05-25T21:57:21.753Z,8.73
2023-05-25T21:59:49.820Z,11.52
2023-05-25T22:02:19.162Z,7.45
2023-05-25T22:04:48.817Z,8.20
2023-05-25T22:07:16.896Z,8.18
2023-05-25T22:09:44.972Z,8.75
2023-05-25T22:12:13.197Z,7.72
2023-05-25T22:14:41.327Z,9.32
2023-05-25T22:17:09.441Z,9.45
2023-05-25T22:19:37.553Z,10.10
2023-05-25T22:22:07.122Z,8.48
2023-05-25T22:24:35.225Z,9.90
2023-05-25T22:27:03.814Z,11.80
2023-05-25T22:29:31.900Z,7.90
2023-05-25T22:31:59.973Z,7.22
2023-05-25T22:34:28.041Z,9.30
2023-05-25T22:36:56.167Z,7.47
2023-05-25T22:39:25.604Z,8.20
2023-05-25T22:41:53.904Z,9.52
2023-05-25T22:44:21.960Z,9.63
2023-05-25T22:46:50.144Z,9.50
2023-05-25T22:49:18.293Z,10.63
2023-05-25T22:51:46.407Z,9.98
2023-05-25T22:54:14.505Z,10.80
2023-05-25T22:56:43.980Z,11.48
2023-05-25T22:59:12.330Z,7.30
2023-05-25T23:01:40.492Z,11.77
2023-05-25T23:04:08.960Z,8.32
2023-05-25T23:06:37.588Z,9.77
2023-05-25T23:09:06.003Z,9.23
2023-05-25T23:11:34.084Z,6.53
2023-05-25T23:14:03.653Z,8.45
2023-05-25T23:16:31.784Z,6.85
2023-05-25T23:19:00.309Z,8.38
2023-05-25T23:21:28.401Z,7.75
2023-05-25T23:23:56.446Z,7.85
2023-05-25T23:26:24.553Z,10.23
2023-05-25T23:28:52.686Z,8.23
2023-05-25T23:31:22.519Z,10.75
2023-05-25T23:33:50.606Z,9.13
2023-05-25T23:36:18.694Z,7.15
2023-05-25T23:38:47.088Z,9.93
2023-05-25T23:41:16.504Z,10.32
2023-05-25T23:43:44.632Z,12.52
2023-05-25T23:46:14.586Z,14.23
2023-05-25T23:48:44.132Z,9.93
2023-05-25T23:51:12.347Z,10.00
2023-05-25T23:53:40.557Z,10.95
2023-05-25T23:56:09.081Z,12.13
2023-05-25T23:58:37.184Z,8.63
